Time;durP1;ratioP1;P1;durP2;ratioP2;P2;SDS_P1;SDS_P2;PMS_P1;PMS_P2;Temp;Humidity;BMP_temperature;BMP_pressure;BME280_temperature;BME280_humidity;BME280_pressure;Samples;Min_cycle;Max_cycle;Signal;HPM_P1;HPM_P2
2022/11/05 00:11:11;;;;;;;15.50;7.00;;;;;;;11.73;100.00;99154.88;6328821;28;20043;-74
2022/11/05 00:17:32;;;;;;;11.88;6.22;;;;;;;11.81;100.00;99154.25;6360560;27;20444;-74
2022/11/05 00:20:34;;;;;;;;;;;;;;;11.80;100.00;99156.03;6372670;27;20046;-73
2022/11/05 00:26:54;;;;;;;15.95;6.80;;;;;;;11.77;100.00;99152.84;6372528;27;20043;-75
2022/11/05 00:29:54;;;;;;;16.17;8.20;;;;;;;11.77;100.00;99156.28;6353495;27;20051;-73
2022/11/05 00:33:02;;;;;;;15.35;7.38;;;;;;;11.79;100.00;99166.63;6336447;27;20083;-75
2022/11/05 00:36:03;;;;;;;13.02;6.85;;;;;;;11.76;100.00;99159.03;6371860;27;20047;-75
2022/11/05 00:39:04;;;;;;;11.40;7.05;;;;;;;11.81;100.00;99157.69;6353450;27;20043;-75
2022/11/05 00:45:26;;;;;;;11.50;6.45;;;;;;;11.85;100.00;99164.34;6346197;28;20043;-74
2022/11/05 00:51:46;;;;;;;13.27;6.78;;;;;;;11.91;100.00;99201.44;6306488;28;20505;-75
2022/11/05 00:54:47;;;;;;;25.85;7.28;;;;;;;11.91;100.00;99206.66;6277817;28;20048;-74
2022/11/05 00:57:47;;;;;;;15.93;6.88;;;;;;;11.89;100.00;99207.59;6294087;28;20068;-75
2022/11/05 01:00:51;;;;;;;13.55;6.40;;;;;;;11.91;100.00;99199.66;6294042;28;20115;-74
2022/11/05 01:03:52;;;;;;;14.05;6.07;;;;;;;11.83;100.00;99196.78;6277421;28;20057;-75
2022/11/05 01:06:53;;;;;;;11.52;6.90;;;;;;;11.86;100.00;99186.91;6294963;28;20044;-75
2022/11/05 01:09:54;;;;;;;11.65;6.47;;;;;;;11.85;100.00;99189.66;6295052;28;20120;-74
2022/11/05 01:12:55;;;;;;;9.50;5.97;;;;;;;11.81;100.00;99183.81;6293808;28;20044;-73
2022/11/05 01:15:56;;;;;;;11.70;5.88;;;;;;;11.76;100.00;99170.31;6293596;28;20044;-75
2022/11/05 01:18:57;;;;;;;14.23;6.95;;;;;;;11.73;100.00;99161.88;6293787;28;20093;-73
2022/11/05 01:21:58;;;;;;;12.85;6.25;;;;;;;11.67;100.00;99150.13;6293597;28;20040;-73
2022/11/05 01:24:58;;;;;;;11.27;5.97;;;;;;;11.71;100.00;99151.53;6294787;28;20048;-74
2022/11/05 01:28:00;;;;;;;9.20;5.68;;;;;;;11.77;100.00;99158.06;6293482;28;20064;-73
2022/11/05 01:31:01;;;;;;;19.13;6.45;;;;;;;11.80;100.00;99157.84;6293498;28;20040;-74
2022/11/05 01:34:02;;;;;;;11.48;6.95;;;;;;;11.79;100.00;99161.38;6293462;28;20049;-73
2022/11/05 01:37:03;;;;;;;8.63;5.63;;;;;;;11.77;100.00;99158.06;6294433;28;20397;-72
2022/11/05 01:40:04;;;;;;;10.40;5.93;;;;;;;11.74;100.00;99153.94;6293436;28;20040;-74
2022/11/05 01:43:14;;;;;;;13.53;6.83;;;;;;;11.76;100.00;99149.41;6294529;28;20047;-75
2022/11/05 01:46:24;;;;;;;10.25;5.82;;;;;;;11.84;100.00;99159.22;6276581;28;20780;-75
2022/11/05 01:49:32;;;;;;;12.45;5.88;;;;;;;11.85;100.00;99153.06;6293317;28;20052;-73
2022/11/05 01:52:34;;;;;;;11.88;6.60;;;;;;;11.86;100.00;99152.09;6320283;28;20046;-75
2022/11/05 01:55:40;;;;;;;12.55;6.38;;;;;;;11.84;100.00;99147.00;6309551;28;20071;-73
2022/11/05 01:58:49;;;;;;;11.77;6.05;;;;;;;11.87;100.00;99144.13;6326810;28;20039;-75
2022/11/05 02:01:51;;;;;;;14.82;6.70;;;;;;;11.79;100.00;99130.84;6326360;28;20399;-75
2022/11/05 02:04:58;;;;;;;13.23;6.70;;;;;;;11.90;100.00;99130.00;6344830;28;20043;-73
2022/11/05 02:07:59;;;;;;;14.45;6.93;;;;;;;12.00;100.00;99130.91;6326427;28;20122;-73
2022/11/05 02:11:00;;;;;;;12.60;6.38;;;;;;;12.00;100.00;99130.91;6344461;28;20109;-73
2022/11/05 02:14:01;;;;;;;13.82;7.25;;;;;;;11.99;100.00;99113.59;6326320;28;20043;-75
2022/11/05 02:17:05;;;;;;;17.08;7.25;;;;;;;11.94;100.00;99120.13;6345913;28;20430;-75
2022/11/05 02:20:22;;;;;;;11.30;6.22;;;;;;;12.04;100.00;99118.44;6331524;28;20040;-73
2022/11/05 02:24:00;;;;;;;10.63;6.10;;;;;;;12.06;100.00;99121.75;6331374;28;20541;-73
2022/11/05 02:27:19;;;;;;;11.50;6.40;;;;;;;12.04;100.00;99114.03;6331287;28;20043;-74
2022/11/05 02:30:45;;;;;;;11.80;6.30;;;;;;;12.04;100.00;99115.81;6331273;28;20039;-74
2022/11/05 02:34:00;;;;;;;10.00;5.03;;;;;;;12.00;100.00;99110.00;6349204;28;20118;-73
2022/11/05 02:37:12;;;;;;;14.73;6.07;;;;;;;12.04;100.00;99110.59;6330927;28;20380;-74
2022/11/05 02:40:34;;;;;;;8.35;5.45;;;;;;;12.04;100.00;99131.50;6349144;28;20486;-75
2022/11/05 02:43:46;;;;;;;8.18;5.57;;;;;;;12.02;100.00;99133.41;6330889;28;20441;-73
2022/11/05 02:47:01;;;;;;;;;;;;;;;12.08;100.00;99143.38;6331244;28;20047;-73
2022/11/05 02:50:17;;;;;;;11.32;5.03;;;;;;;12.05;100.00;99138.41;6330727;28;19919;-73
2022/11/05 02:53:32;;;;;;;10.18;4.80;;;;;;;12.06;100.00;99151.34;6297227;28;20044;-73
2022/11/05 02:56:38;;;;;;;11.00;5.28;;;;;;;12.09;100.00;99150.28;6297047;28;20115;-72
2022/11/05 02:59:39;;;;;;;10.15;5.82;;;;;;;12.10;100.00;99139.66;6297050;28;20166;-75
2022/11/05 03:02:39;;;;;;;9.55;5.65;;;;;;;12.07;100.00;99150.41;6298151;28;20044;-75
2022/11/05 03:06:06;;;;;;;9.30;5.60;;;;;;;12.13;100.00;99141.22;6298159;28;20044;-75
2022/11/05 03:09:26;;;;;;;12.07;6.35;;;;;;;12.14;100.00;99166.41;6296837;28;20489;-73
2022/11/05 03:12:41;;;;;;;12.98;5.13;;;;;;;12.16;100.00;99155.81;6296823;28;20066;-74
2022/11/05 03:15:57;;;;;;;11.98;5.70;;;;;;;12.13;100.00;99146.47;6296582;28;20119;-74
2022/11/05 03:19:28;;;;;;;11.40;5.60;;;;;;;12.11;100.00;99150.97;6296608;28;20098;-73
2022/11/05 03:22:35;;;;;;;10.63;5.30;;;;;;;12.12;100.00;99160.47;6296640;28;20196;-74
2022/11/05 03:25:42;;;;;;;13.80;5.85;;;;;;;12.12;100.00;99157.03;6296429;28;20044;-73
2022/11/05 03:28:50;;;;;;;9.07;5.45;;;;;;;12.14;100.00;99155.13;6297629;28;20052;-73
2022/11/05 03:31:56;;;;;;;12.23;6.32;;;;;;;12.12;100.00;99155.25;6297506;28;20500;-75
2022/11/05 03:35:06;;;;;;;13.43;5.57;;;;;;;12.18;100.00;99151.31;6296332;28;20041;-73
2022/11/05 03:38:14;;;;;;;13.00;5.43;;;;;;;12.19;100.00;99145.97;6297463;28;20044;-73
2022/11/05 03:41:16;;;;;;;8.65;5.05;;;;;;;12.19;100.00;99160.78;6279495;28;20044;-73
2022/11/05 03:44:23;;;;;;;9.35;5.38;;;;;;;12.17;100.00;99166.16;6279528;28;20850;-75
2022/11/05 03:47:34;;;;;;;12.55;6.00;;;;;;;12.16;100.00;99158.44;6296050;28;20098;-75
2022/11/05 03:50:45;;;;;;;11.02;5.72;;;;;;;12.16;100.00;99167.13;6301021;28;20075;-75
2022/11/05 03:53:51;;;;;;;11.55;5.78;;;;;;;12.06;100.00;99164.41;6329430;28;20040;-75
2022/11/05 03:56:56;;;;;;;8.80;5.18;;;;;;;12.12;100.00;99170.09;6329240;28;20435;-73
2022/11/05 03:59:57;;;;;;;13.02;5.68;;;;;;;12.10;100.00;99176.28;6329133;28;20040;-73
2022/11/05 04:02:58;;;;;;;17.58;5.68;;;;;;;12.18;100.00;99178.28;6311994;28;20368;-73
2022/11/05 04:26:04;;;;;;;8.88;4.75;;;;;;;12.47;100.00;99194.19;6346593;28;20556;-73
2022/11/05 04:32:27;;;;;;;8.32;4.00;;;;;;;12.49;100.00;99207.97;6328247;28;20100;-76
2022/11/05 04:35:43;;;;;;;10.20;5.00;;;;;;;12.45;100.00;99203.94;6346305;28;20343;-76
2022/11/05 04:38:44;;;;;;;8.40;4.25;;;;;;;12.39;100.00;99214.09;6346157;28;20075;-76
2022/11/05 04:41:48;;;;;;;11.23;4.22;;;;;;;12.38;100.00;99213.28;6327774;28;20088;-76
2022/11/05 04:44:51;;;;;;;10.73;4.38;;;;;;;12.34;100.00;99217.09;6328044;28;20047;-76
2022/11/05 04:47:52;;;;;;;6.50;4.07;;;;;;;12.33;100.00;99214.59;6346132;28;20064;-76
2022/11/05 04:50:53;;;;;;;7.22;3.85;;;;;;;12.32;100.00;99205.94;6327701;28;20066;-76
2022/11/05 04:53:56;;;;;;;9.27;4.65;;;;;;;12.34;100.00;99200.59;6327888;28;20061;-76
2022/11/05 04:56:56;;;;;;;7.00;4.43;;;;;;;12.36;100.00;99202.09;6346204;28;20391;-77
2022/11/05 04:59:57;;;;;;;8.02;4.90;;;;;;;12.29;100.00;99196.56;6329794;28;20123;-77
2022/11/05 05:02:58;;;;;;;6.63;4.13;;;;;;;12.28;100.00;99197.50;6312319;28;20043;-76
2022/11/05 05:05:58;;;;;;;11.85;4.53;;;;;;;12.34;100.00;99190.94;6346113;28;20047;-76
2022/11/05 05:08:59;;;;;;;9.75;4.28;;;;;;;12.37;100.00;99192.47;6360635;27;20039;-76
2022/11/05 05:12:01;;;;;;;11.52;4.57;;;;;;;12.38;100.00;99186.28;6351711;27;20092;-77
2022/11/05 05:15:03;;;;;;;13.43;4.88;;;;;;;12.33;100.00;99188.44;6328887;28;20401;-76
2022/11/05 05:18:04;;;;;;;8.75;5.43;;;;;;;12.33;100.00;99189.25;6346492;28;20047;-77
2022/11/05 05:24:24;;;;;;;10.30;5.18;;;;;;;12.35;100.00;99194.38;6351687;27;20048;-76
2022/11/05 05:27:29;;;;;;;10.98;5.13;;;;;;;12.32;100.00;99192.84;6338489;27;20087;-76
2022/11/05 05:30:29;;;;;;;7.15;4.60;;;;;;;12.33;100.00;99193.69;6354761;27;20479;-77
2022/11/05 05:33:30;;;;;;;7.65;3.88;;;;;;;12.33;100.00;99204.13;6372634;27;20035;-76
2022/11/05 05:36:31;;;;;;;8.48;4.53;;;;;;;12.36;100.00;99204.72;6372400;27;20122;-77
2022/11/05 05:39:31;;;;;;;11.63;4.85;;;;;;;12.40;100.00;99206.13;6354364;27;20047;-77
2022/11/05 05:42:32;;;;;;;11.70;5.30;;;;;;;12.37;100.00;99211.59;6372352;27;20047;-77
2022/11/05 05:45:35;;;;;;;10.02;5.40;;;;;;;12.38;100.00;99226.34;6354074;27;20070;-77
2022/11/05 05:48:35;;;;;;;10.02;5.35;;;;;;;12.42;100.00;99226.94;6372171;27;20070;-76
2022/11/05 05:51:36;;;;;;;8.95;5.20;;;;;;;12.44;100.00;99230.25;6371311;27;20044;-77
2022/11/05 05:54:37;;;;;;;8.27;4.60;;;;;;;12.43;100.00;99225.97;6372449;27;20062;-77
2022/11/05 05:57:37;;;;;;;5.97;4.28;;;;;;;12.45;100.00;99231.91;6372025;27;20043;-77
2022/11/05 06:00:40;;;;;;;10.50;5.88;;;;;;;12.42;100.00;99238.22;6336457;27;20079;-76
2022/11/05 06:03:42;;;;;;;10.50;5.45;;;;;;;12.42;100.00;99240.03;6372501;27;20043;-77
2022/11/05 06:06:45;;;;;;;9.25;5.03;;;;;;;12.39;100.00;99248.94;6336535;28;20181;-77
2022/11/05 06:09:46;;;;;;;10.75;4.90;;;;;;;12.43;100.00;99250.34;6372220;28;20608;-77
2022/11/05 06:12:47;;;;;;;6.28;4.32;;;;;;;12.45;100.00;99243.19;6353625;28;20047;-77
2022/11/05 06:15:47;;;;;;;10.80;5.15;;;;;;;12.46;100.00;99249.28;6336396;28;20047;-77
2022/11/05 06:18:48;;;;;;;7.88;5.18;;;;;;;12.43;100.00;99247.72;6371778;28;20057;-77
2022/11/05 06:21:49;;;;;;;9.05;5.15;;;;;;;12.50;100.00;99258.53;6371918;28;20528;-74
2022/11/05 06:24:50;;;;;;;10.57;5.80;;;;;;;12.53;100.00;99266.13;6371094;28;20591;-74
2022/11/05 06:27:50;;;;;;;12.68;6.72;;;;;;;12.54;100.00;99267.81;6371248;28;20048;-74
2022/11/05 06:30:51;;;;;;;13.30;6.00;;;;;;;12.55;100.00;99266.00;6371235;28;20071;-74
2022/11/05 06:33:54;;;;;;;8.25;5.32;;;;;;;12.52;100.00;99266.25;6352779;28;20043;-74
2022/11/05 06:36:55;;;;;;;10.65;5.80;;;;;;;12.53;100.00;99268.75;6352621;28;20091;-77
2022/11/05 06:39:56;;;;;;;14.30;6.32;;;;;;;12.60;100.00;99272.53;6353483;28;20047;-77
2022/11/05 06:42:57;;;;;;;16.63;8.50;;;;;;;12.56;100.00;99276.38;6333083;28;20078;-77
2022/11/05 06:46:00;;;;;;;18.25;9.20;;;;;;;12.69;100.00;99281.41;6328056;28;20051;-77
2022/11/05 06:49:01;;;;;;;15.82;8.48;;;;;;;12.69;100.00;99279.63;6328401;28;20059;-77
2022/11/05 06:52:02;;;;;;;47.25;19.60;;;;;;;12.63;100.00;99272.28;6310733;28;20522;-77
2022/11/05 06:55:03;;;;;;;54.00;25.15;;;;;;;12.81;100.00;99295.28;6327518;28;20044;-74
2022/11/05 06:58:04;;;;;;;23.08;11.77;;;;;;;12.81;100.00;99298.72;6326737;28;20039;-77
2022/11/05 07:01:09;;;;;;;10.38;6.30;;;;;;;12.77;100.00;99301.75;6327262;28;20078;-74
2022/11/05 07:04:13;;;;;;;11.68;6.78;;;;;;;12.73;100.00;99305.56;6330693;28;20043;-76
2022/11/05 07:07:14;;;;;;;17.15;6.22;;;;;;;12.75;100.00;99299.25;6350567;27;20100;-77
2022/11/05 07:10:17;;;;;;;14.15;7.05;;;;;;;12.74;100.00;99291.50;6354950;27;20039;-74
2022/11/05 07:13:18;;;;;;;10.18;6.30;;;;;;;12.71;100.00;99287.34;6357221;27;20125;-76
2022/11/05 07:16:18;;;;;;;11.80;6.55;;;;;;;12.68;100.00;99285.81;6351781;27;20502;-73
2022/11/05 07:19:19;;;;;;;10.15;6.38;;;;;;;12.67;100.00;99276.31;6343179;27;20046;-74
2022/11/05 07:22:20;;;;;;;14.55;8.90;;;;;;;12.80;100.00;99286.59;6349978;28;20082;-74
2022/11/05 07:25:21;;;;;;;12.32;8.43;;;;;;;12.76;100.00;99284.34;6351537;27;20095;-73
2022/11/05 07:28:21;;;;;;;13.02;7.65;;;;;;;12.77;100.00;99293.88;6338789;27;20096;-77
2022/11/05 07:31:22;;;;;;;15.60;9.27;;;;;;;12.75;100.00;99294.00;6357599;27;20092;-73
2022/11/05 07:34:23;;;;;;;15.43;8.68;;;;;;;12.77;100.00;99297.31;6348179;27;20095;-74
2022/11/05 07:37:24;;;;;;;14.18;7.70;;;;;;;12.82;100.00;99300.38;6365334;27;20044;-73
2022/11/05 07:40:27;;;;;;;32.63;18.08;;;;;;;12.81;100.00;99293.50;6331047;28;20138;-74
2022/11/05 07:43:27;;;;;;;12.52;7.43;;;;;;;12.82;100.00;99289.91;6351122;27;20406;-74
2022/11/05 07:46:29;;;;;;;12.32;7.88;;;;;;;12.87;100.00;99300.84;6367870;27;20044;-73
2022/11/05 07:49:29;;;;;;;11.10;7.03;;;;;;;12.88;100.00;99293.81;6349214;28;20047;-73
2022/11/05 07:52:33;;;;;;;11.80;6.05;;;;;;;12.95;100.00;99294.97;6368040;27;20129;-74
2022/11/05 07:55:34;;;;;;;11.63;5.95;;;;;;;12.98;100.00;99296.50;6355778;27;20096;-74
2022/11/05 07:58:37;;;;;;;9.02;5.65;;;;;;;12.95;100.00;99294.97;6374386;27;20471;-73
2022/11/05 08:01:37;;;;;;;10.48;5.88;;;;;;;12.90;100.00;99297.97;6325807;28;20066;-74
2022/11/05 08:04:41;;;;;;;11.23;5.68;;;;;;;12.91;100.00;99298.81;6348750;28;20218;-73
2022/11/05 08:07:42;;;;;;;10.93;5.72;;;;;;;12.93;100.00;99288.19;6330231;28;20062;-73
2022/11/05 08:10:42;;;;;;;9.55;5.97;;;;;;;13.01;100.00;99293.63;6317665;27;20131;-73
2022/11/05 08:13:43;;;;;;;10.80;6.57;;;;;;;13.09;100.00;99288.56;6349788;27;20487;-73
2022/11/05 08:16:44;;;;;;;11.85;5.97;;;;;;;13.23;100.00;99285.63;6354719;27;20141;-73
2022/11/05 08:19:47;;;;;;;12.13;7.10;;;;;;;13.31;100.00;99279.78;6373771;27;20043;-73
2022/11/05 08:22:48;;;;;;;16.42;7.32;;;;;;;13.34;100.00;99274.25;6355365;27;20050;-74
2022/11/05 08:25:49;;;;;;;13.70;8.32;;;;;;;13.36;100.00;99266.28;6373515;27;20130;-73
2022/11/05 08:28:49;;;;;;;22.15;14.07;;;;;;;13.47;100.00;99277.53;6346035;27;20442;-74
2022/11/05 08:31:50;;;;;;;18.98;11.10;;;;;;;13.56;100.00;99278.50;6352199;27;20524;-74
2022/11/05 08:34:53;;;;;;;13.98;8.20;;;;;;;13.68;100.00;99279.25;6347102;27;20391;-75
2022/11/05 08:38:01;;;;;;;14.55;8.60;;;;;;;13.72;100.00;99277.22;6348498;27;20066;-74
2022/11/05 08:41:02;;;;;;;11.55;6.25;;;;;;;13.72;100.00;99283.28;6353657;27;20043;-73
2022/11/05 08:44:03;;;;;;;18.83;6.97;;;;;;;13.82;100.00;99278.06;6377589;27;20046;-77
2022/11/05 08:47:04;;;;;;;16.25;7.43;;;;;;;13.77;100.00;99282.88;6330184;28;20101;-78
2022/11/05 08:50:05;;;;;;;10.75;6.40;;;;;;;13.77;100.00;99285.50;6359356;27;20050;-77
2022/11/05 08:53:07;;;;;;;14.07;7.20;;;;;;;13.86;100.00;99285.53;6387121;27;20054;-73
2022/11/05 08:56:08;;;;;;;10.02;6.18;;;;;;;13.86;100.00;99292.56;6374238;27;20043;-73
2022/11/05 08:59:09;;;;;;;9.87;6.67;;;;;;;13.91;100.00;99299.06;6344748;27;20125;-74
2022/11/05 09:02:11;;;;;;;13.90;6.30;;;;;;;13.99;100.00;99295.78;6356494;27;20036;-74
2022/11/05 09:05:11;;;;;;;8.32;5.70;;;;;;;14.05;100.00;99299.66;6346575;27;20039;-73
2022/11/05 09:08:17;;;;;;;8.38;5.57;;;;;;;14.13;100.00;99299.81;6363457;27;20487;-73
2022/11/05 09:11:18;;;;;;;10.23;6.30;;;;;;;14.27;100.00;99296.00;6346457;28;20046;-73
2022/11/05 09:14:18;;;;;;;9.75;5.97;;;;;;;14.43;100.00;99298.91;6364110;27;20046;-73
2022/11/05 09:17:20;;;;;;;11.25;5.80;;;;;;;14.44;100.00;99300.56;6330810;28;20044;-73
2022/11/05 09:20:23;;;;;;;12.20;5.68;;;;;;;14.62;100.00;99303.38;6328840;28;20047;-73
2022/11/05 09:23:24;;;;;;;8.38;5.90;;;;;;;14.64;100.00;99304.06;6311371;28;20089;-73
2022/11/05 09:26:25;;;;;;;11.52;5.50;;;;;;;14.57;100.00;99300.31;6327716;28;20185;-73
2022/11/05 09:29:25;;;;;;;11.23;5.72;;;;;;;14.60;100.00;99304.47;6311147;28;20055;-73
2022/11/05 09:32:26;;;;;;;8.35;5.38;;;;;;;14.71;100.00;99296.47;6311035;28;20142;-73
2022/11/05 09:35:27;;;;;;;10.15;5.13;;;;;;;14.74;100.00;99309.28;6327693;28;20080;-73
2022/11/05 09:38:27;;;;;;;9.52;5.85;;;;;;;14.66;100.00;99317.03;6328457;28;20118;-77
2022/11/05 09:41:35;;;;;;;9.40;5.15;;;;;;;14.51;100.00;99321.84;6346679;28;20067;-76
2022/11/05 09:44:53;;;;;;;11.07;5.72;;;;;;;14.47;100.00;99321.28;6346549;28;20039;-76
2022/11/05 09:48:02;;;;;;;8.02;5.18;;;;;;;14.43;100.00;99325.16;6328054;28;20078;-74
2022/11/05 09:51:04;;;;;;;9.00;4.97;;;;;;;14.32;100.00;99322.66;6346000;28;20058;-74
2022/11/05 09:54:05;;;;;;;9.02;4.85;;;;;;;14.08;100.00;99320.38;6345357;28;20054;-73
2022/11/05 09:57:14;;;;;;;10.50;4.45;;;;;;;14.06;100.00;99325.78;6345571;28;20571;-74
2022/11/05 10:00:16;;;;;;;12.70;5.00;;;;;;;14.06;100.00;99317.03;6345982;28;20392;-74
2022/11/05 10:03:20;;;;;;;10.10;5.47;;;;;;;14.03;100.00;99320.78;6346177;28;20503;-73
2022/11/05 10:06:24;;;;;;;11.48;6.03;;;;;;;14.26;100.00;99323.19;6345748;28;20047;-73
2022/11/05 10:09:44;;;;;;;12.85;5.70;;;;;;;14.43;100.00;99330.41;6345804;28;20451;-74
2022/11/05 10:12:54;;;;;;;9.43;5.38;;;;;;;14.44;100.00;99328.59;6310559;28;20488;-74
2022/11/05 10:16:12;;;;;;;13.98;5.55;;;;;;;14.45;100.00;99328.44;6327684;28;20043;-74
2022/11/05 10:19:23;;;;;;;12.75;5.28;;;;;;;14.61;100.00;99330.59;6309903;28;20055;-73
2022/11/05 10:22:24;;;;;;;17.50;5.63;;;;;;;14.69;100.00;99333.34;6345518;28;20075;-76
2022/11/05 10:25:30;;;;;;;16.92;6.18;;;;;;;14.70;100.00;99332.41;6345600;28;20395;-77
2022/11/05 10:28:33;;;;;;;7.47;5.35;;;;;;;14.72;100.00;99334.88;6345710;28;20494;-77
2022/11/05 10:31:36;;;;;;;10.60;6.25;;;;;;;14.87;100.00;99337.94;6327488;28;20510;-76
2022/11/05 10:34:38;;;;;;;12.00;6.30;;;;;;;15.04;100.00;99334.59;6328318;28;20047;-74
2022/11/05 10:37:40;;;;;;;12.45;5.90;;;;;;;15.22;100.00;99336.53;6339499;27;20071;-74
2022/11/05 10:40:56;;;;;;;10.25;5.75;;;;;;;15.29;100.00;99342.84;6336378;28;20039;-73
2022/11/05 10:44:29;;;;;;;10.68;5.32;;;;;;;15.32;100.00;99339.97;6334530;28;20047;-74
2022/11/05 10:47:48;;;;;;;;;;;;;;;15.36;100.00;99346.59;6337866;27;20163;-74
2022/11/05 10:50:55;;;;;;;15.40;6.28;;;;;;;15.44;100.00;99336.19;6339330;27;20272;-77
2022/11/05 10:54:00;;;;;;;14.30;7.07;;;;;;;15.42;100.00;99342.53;6344215;28;20036;-77
2022/11/05 10:57:37;;;;;;;15.00;5.95;;;;;;;15.36;100.00;99345.75;6353629;27;20047;-77
2022/11/05 11:00:38;;;;;;;9.90;5.43;;;;;;;15.28;100.00;99338.59;6360898;27;20039;-74
2022/11/05 11:03:50;;;;;;;12.65;6.05;;;;;;;15.16;100.00;99352.84;6363243;27;20112;-77
2022/11/05 11:06:54;;;;;;;12.63;6.45;;;;;;;15.19;100.00;99348.13;6313014;27;20070;-77
2022/11/05 11:09:55;;;;;;;10.88;5.80;;;;;;;15.02;100.00;99351.47;6364691;27;20106;-77
2022/11/05 11:12:56;;;;;;;13.18;6.18;;;;;;;15.14;100.00;99357.41;6360168;27;20134;-77
2022/11/05 11:16:24;;;;;;;11.88;5.68;;;;;;;15.02;100.00;99361.97;6364514;27;20035;-77
2022/11/05 11:19:28;;;;;;;13.25;5.57;;;;;;;15.00;100.00;99361.28;6365057;27;20039;-74
2022/11/05 11:22:31;;;;;;;15.63;6.18;;;;;;;14.83;100.00;99358.38;6338559;27;20054;-75
2022/11/05 11:25:50;;;;;;;11.68;6.13;;;;;;;14.91;100.00;99358.53;6340392;28;20044;-75
2022/11/05 11:29:11;;;;;;;9.40;5.00;;;;;;;14.90;100.00;99361.28;6361421;27;20076;-75
2022/11/05 11:32:18;;;;;;;13.77;5.70;;;;;;;14.88;100.00;99356.16;6356831;27;20471;-75
2022/11/05 11:35:24;;;;;;;12.38;6.68;;;;;;;14.92;100.00;99367.22;6356601;27;20478;-75
2022/11/05 11:38:30;;;;;;;14.02;6.22;;;;;;;15.02;100.00;99359.34;6330117;27;20051;-78
2022/11/05 11:41:41;;;;;;;11.10;5.88;;;;;;;15.04;100.00;99366.13;6339909;27;20051;-79
2022/11/05 11:44:46;;;;;;;9.95;5.75;;;;;;;14.94;100.00;99367.91;6374353;27;20049;-79
2022/11/05 11:47:49;;;;;;;8.85;5.30;;;;;;;14.99;100.00;99362.25;6350731;27;20496;-79
2022/11/05 11:50:51;;;;;;;15.85;6.55;;;;;;;14.98;100.00;99369.28;6337926;27;20108;-75
2022/11/05 11:53:56;;;;;;;9.90;6.10;;;;;;;14.99;100.00;99359.59;6356443;27;20395;-74
2022/11/05 11:56:57;;;;;;;12.32;5.18;;;;;;;14.87;100.00;99357.13;6371309;27;20031;-75
2022/11/05 12:00:00;;;;;;;14.10;6.03;;;;;;;14.82;100.00;99359.34;6355763;27;20553;-75
2022/11/05 12:03:24;;;;;;;10.68;5.40;;;;;;;14.91;100.00;99363.78;6340564;28;20050;-74
2022/11/05 12:06:28;;;;;;;11.05;5.80;;;;;;;14.90;100.00;99369.16;6347701;28;20586;-74
2022/11/05 12:09:40;;;;;;;11.25;5.38;;;;;;;14.93;100.00;99373.28;6348525;28;20039;-77
2022/11/05 12:13:14;;;;;;;10.73;6.87;;;;;;;14.97;100.00;99370.28;6313460;28;20395;-74
2022/11/05 12:16:28;;;;;;;12.32;6.05;;;;;;;15.06;100.00;99374.69;6336972;28;20078;-75
2022/11/05 12:20:06;;;;;;;10.63;6.47;;;;;;;15.17;100.00;99376.34;6347344;28;20480;-74
2022/11/05 12:23:42;;;;;;;9.95;5.50;;;;;;;15.21;100.00;99369.81;6348108;28;20040;-74
2022/11/05 12:27:00;;;;;;;9.55;5.80;;;;;;;15.29;100.00;99372.59;6330154;28;20047;-78
2022/11/05 12:30:10;;;;;;;16.20;6.80;;;;;;;15.37;100.00;99374.53;6329081;28;20123;-74
2022/11/05 12:33:25;;;;;;;9.50;6.07;;;;;;;15.49;100.00;99373.41;6331966;27;20058;-75
2022/11/05 12:36:53;;;;;;;12.88;7.43;;;;;;;15.93;100.00;99370.25;6328346;28;20052;-78
2022/11/05 12:40:43;;;;;;;11.98;6.40;;;;;;;15.95;100.00;99364.84;6328110;28;20523;-75
2022/11/05 12:44:08;;;;;;;9.15;6.18;;;;;;;16.09;100.00;99372.25;6331619;28;20522;-76
2022/11/05 12:47:36;;;;;;;12.23;7.57;;;;;;;15.95;100.00;99372.75;6311406;28;20055;-75
2022/11/05 12:50:47;;;;;;;16.85;6.90;;;;;;;15.76;100.00;99382.34;6336385;27;20091;-75
2022/11/05 12:53:53;;;;;;;15.82;7.10;;;;;;;15.68;100.00;99388.28;6338037;27;20458;-75
2022/11/05 12:57:00;;;;;;;13.65;7.72;;;;;;;15.60;100.00;99390.78;6372254;27;20071;-75
2022/11/05 13:00:16;;;;;;;11.63;7.00;;;;;;;15.62;100.00;99393.28;6338792;28;20479;-77
2022/11/05 13:03:32;;;;;;;12.38;7.05;;;;;;;15.62;100.00;99398.56;6346009;28;20046;-77
2022/11/05 13:06:40;;;;;;;12.50;7.20;;;;;;;15.53;100.00;99397.63;6310899;28;20415;-78
2022/11/05 13:10:08;;;;;;;11.73;7.10;;;;;;;15.57;100.00;99401.63;6327684;28;20122;-78
2022/11/05 13:13:25;;;;;;;14.18;6.82;;;;;;;15.47;100.00;99409.50;6345754;28;20044;-75
2022/11/05 13:16:46;;;;;;;15.63;6.65;;;;;;;15.49;100.00;99415.47;6327470;28;20047;-75
2022/11/05 13:20:00;;;;;;;12.38;6.25;;;;;;;15.48;100.00;99407.69;6345388;28;20047;-75
2022/11/05 13:23:12;;;;;;;12.77;7.28;;;;;;;15.41;100.00;99425.84;6345487;28;20042;-75
2022/11/05 13:26:17;;;;;;;12.63;7.93;;;;;;;15.43;100.00;99426.53;6327149;28;20411;-77
2022/11/05 13:30:00;;;;;;;13.68;6.85;;;;;;;15.39;100.00;99424.34;6327175;28;20494;-77
2022/11/05 13:33:09;;;;;;;14.98;7.10;;;;;;;15.39;100.00;99425.16;6314634;28;20500;-77
2022/11/05 13:39:46;;;;;;;12.73;7.45;;;;;;;15.34;100.00;99431.78;6345124;28;20043;-77
2022/11/05 13:43:21;;;;;;;10.77;6.70;;;;;;;15.30;100.00;99426.00;6327114;28;20101;-75
2022/11/05 13:46:35;;;;;;;15.93;8.30;;;;;;;15.22;100.00;99421.44;6312090;28;20160;-77
2022/11/05 13:49:54;;;;;;;25.42;10.43;;;;;;;15.18;100.00;99417.44;6350164;27;20115;-77
2022/11/05 13:52:59;;;;;;;33.28;15.70;;;;;;;15.12;100.00;99423.22;6344726;28;20483;-75
2022/11/05 13:56:21;;;;;;;32.78;14.98;;;;;;;15.04;100.00;99423.91;6335216;27;20039;-77
2022/11/05 13:59:44;;;;;;;30.25;13.90;;;;;;;15.08;100.00;99430.56;6313577;27;20051;-75
2022/11/05 14:03:14;;;;;;;18.00;10.00;;;;;;;15.01;100.00;99431.22;6354750;27;20074;-74
2022/11/05 14:06:25;;;;;;;13.23;7.85;;;;;;;15.00;100.00;99432.22;6314604;27;20039;-77
2022/11/05 14:09:26;;;;;;;21.58;8.90;;;;;;;15.00;100.00;99435.66;6321556;27;20139;-77
2022/11/05 14:12:31;;;;;;;16.90;8.60;;;;;;;15.00;100.00;99434.84;6335369;28;20047;-77
2022/11/05 14:15:32;;;;;;;14.77;8.73;;;;;;;14.95;100.00;99431.78;6341900;28;20088;-75
2022/11/05 14:18:37;;;;;;;16.27;8.27;;;;;;;14.94;100.00;99438.00;6317315;27;20078;-75
2022/11/05 14:21:49;;;;;;;12.77;7.90;;;;;;;15.06;100.00;99437.75;6321149;28;20503;-75
2022/11/05 14:24:50;;;;;;;20.38;11.35;;;;;;;15.03;100.00;99431.94;6347912;28;20054;-75
2022/11/05 14:27:57;;;;;;;35.95;19.42;;;;;;;15.01;100.00;99439.13;6369902;28;20050;-74
2022/11/05 14:30:57;;;;;;;54.88;26.45;;;;;;;14.99;100.00;99443.66;6350922;28;20044;-77
2022/11/05 14:34:39;;;;;;;66.38;30.98;;;;;;;14.96;100.00;99436.09;6369074;28;20118;-79
2022/11/05 14:37:51;;;;;;;29.63;14.80;;;;;;;14.89;100.00;99439.25;6347602;28;20427;-77
2022/11/05 14:40:59;;;;;;;23.50;10.05;;;;;;;14.85;100.00;99439.66;6310872;28;20517;-77
2022/11/05 14:44:05;;;;;;;20.38;9.02;;;;;;;14.86;100.00;99446.56;6358293;28;20051;-77
2022/11/05 14:47:20;;;;;;;16.48;8.85;;;;;;;14.85;100.00;99453.63;6360464;27;20130;-77
2022/11/05 14:50:40;;;;;;;16.30;9.07;;;;;;;14.82;100.00;99459.13;6360841;27;20054;-77
2022/11/05 14:53:46;;;;;;;15.23;9.32;;;;;;;14.83;100.00;99454.72;6378044;27;20058;-77
2022/11/05 14:57:01;;;;;;;17.83;9.98;;;;;;;14.76;100.00;99457.03;6359005;27;20039;-77
2022/11/05 15:00:04;;;;;;;17.75;10.45;;;;;;;14.73;100.00;99454.69;6329914;28;20175;-77
2022/11/05 15:03:39;;;;;;;19.80;10.80;;;;;;;14.64;100.00;99455.50;6352491;27;20043;-77
2022/11/05 15:07:01;;;;;;;19.75;10.75;;;;;;;14.58;100.00;99461.28;6376377;27;20386;-75
2022/11/05 15:10:09;;;;;;;18.20;11.18;;;;;;;14.49;100.00;99441.88;6326326;28;20069;-75
2022/11/05 15:13:37;;;;;;;16.13;9.95;;;;;;;14.46;100.00;99450.03;6323410;27;20061;-76
2022/11/05 15:16:52;;;;;;;20.60;11.63;;;;;;;14.45;100.00;99461.50;6396494;27;20039;-77